createdAt,value
2018-04-12T00:01:04.368Z,9.50
2018-04-12T00:03:33.709Z,9.47
2018-04-12T00:06:02.345Z,11.40
2018-04-12T00:08:31.728Z,10.57
2018-04-12T00:11:00.308Z,10.90
2018-04-12T00:13:28.936Z,11.13
2018-04-12T00:15:57.493Z,11.57
2018-04-12T00:18:26.829Z,12.33
2018-04-12T00:20:55.445Z,12.83
2018-04-12T00:23:24.051Z,12.53
2018-04-12T00:25:52.633Z,13.03
2018-04-12T00:28:20.977Z,12.47
2018-04-12T00:30:49.590Z,14.97
2018-04-12T00:33:18.197Z,14.80
2018-04-12T00:35:47.545Z,14.23
2018-04-12T00:38:16.143Z,14.67
2018-04-12T00:40:44.741Z,16.10
2018-04-12T00:43:13.354Z,16.77
2018-04-12T00:45:42.728Z,17.27
2018-04-12T00:48:11.268Z,15.67
2018-04-12T00:50:40.644Z,15.97
2018-04-12T00:53:09.976Z,14.80
2018-04-12T00:55:38.569Z,15.50
2018-04-12T00:58:07.186Z,15.27
2018-04-12T01:00:35.778Z,15.37
2018-04-12T01:03:04.082Z,16.37
2018-04-12T01:05:32.790Z,17.20
2018-04-12T01:08:01.374Z,18.40
2018-04-12T01:10:29.973Z,19.00
2018-04-12T01:12:58.546Z,18.87
2018-04-12T01:15:27.154Z,19.60
2018-04-12T01:17:55.705Z,18.83
2018-04-12T01:20:24.109Z,20.63
2018-04-12T01:22:52.716Z,21.10
2018-04-12T01:25:21.272Z,19.83
2018-04-12T01:27:49.858Z,20.33
2018-04-12T01:30:18.458Z,21.77
2018-04-12T01:32:58.119Z,20.83
2018-04-12T01:35:27.310Z,21.43
2018-04-12T01:37:55.887Z,21.83
2018-04-12T01:40:24.277Z,23.03
2018-04-12T01:42:52.858Z,23.90
2018-04-12T01:45:21.450Z,24.20
2018-04-12T01:47:50.825Z,24.77
2018-04-12T01:50:19.418Z,25.17
2018-04-12T01:52:48.037Z,27.33
2018-04-12T01:55:16.645Z,26.40
2018-04-12T01:57:45.282Z,27.50
2018-04-12T02:00:14.724Z,27.07
2018-04-12T02:02:43.304Z,26.67
2018-04-12T02:05:11.895Z,28.33
2018-04-12T02:07:40.527Z,27.63
2018-04-12T02:10:09.110Z,29.07
2018-04-12T02:12:37.707Z,29.43
2018-04-12T02:15:07.078Z,29.80
2018-04-12T02:17:35.673Z,29.33
2018-04-12T02:20:04.229Z,29.90
2018-04-12T02:22:32.625Z,30.70
2018-04-12T02:25:01.212Z,31.93
2018-04-12T02:27:29.794Z,32.03
2018-04-12T02:29:58.191Z,35.37
2018-04-12T02:32:26.777Z,34.03
2018-04-12T02:34:56.150Z,34.33
2018-04-12T02:37:24.739Z,35.10
2018-04-12T02:39:53.329Z,33.40
2018-04-12T02:42:21.900Z,35.67
2018-04-12T02:44:50.481Z,34.90
2018-04-12T02:47:19.085Z,36.03
2018-04-12T02:49:47.655Z,35.40
2018-04-12T02:52:16.241Z,36.33
2018-04-12T02:54:44.826Z,36.43
2018-04-12T02:57:13.090Z,36.00
2018-04-12T02:59:41.713Z,35.73
2018-04-12T03:02:10.327Z,35.53
2018-04-12T03:04:38.922Z,37.57
2018-04-12T03:07:08.521Z,37.07
2018-04-12T03:09:37.833Z,39.03
2018-04-12T03:12:06.413Z,37.80
2018-04-12T03:14:35.013Z,38.40
2018-04-12T03:17:03.589Z,38.13
2018-04-12T03:19:32.157Z,38.37
2018-04-12T03:22:00.736Z,38.23
2018-04-12T03:24:29.339Z,40.90
2018-04-12T03:26:58.127Z,40.43
2018-04-12T03:29:26.695Z,40.60
2018-04-12T03:31:55.316Z,40.73
2018-04-12T03:34:23.891Z,40.93
2018-04-12T03:36:52.469Z,40.20
2018-04-12T03:39:21.069Z,37.63
2018-04-12T03:41:49.637Z,41.83
2018-04-12T03:44:18.257Z,40.10
2018-04-12T03:46:47.621Z,40.60
2018-04-12T03:49:16.316Z,39.93
2018-04-12T03:51:45.073Z,40.30
2018-04-12T03:54:13.675Z,40.60
2018-04-12T03:56:42.289Z,40.23
2018-04-12T03:59:10.863Z,40.87
2018-04-12T04:01:39.492Z,40.17
2018-04-12T04:04:08.106Z,41.37
2018-04-12T04:06:36.704Z,40.50
2018-04-12T04:09:04.675Z,39.90
2018-04-12T04:11:33.257Z,38.53
2018-04-12T04:14:01.825Z,41.50
2018-04-12T04:16:41.701Z,41.50
2018-04-12T04:19:21.450Z,40.60
2018-04-12T04:21:50.960Z,41.37
2018-04-12T04:24:19.651Z,41.27
2018-04-12T04:26:49.037Z,37.67
2018-04-12T04:29:17.614Z,39.50
2018-04-12T04:31:46.223Z,40.70
2018-04-12T04:34:14.826Z,41.20
2018-04-12T04:36:43.413Z,41.20
2018-04-12T04:39:12.008Z,41.33
2018-04-12T04:41:40.593Z,41.43
2018-04-12T04:44:09.183Z,42.73
2018-04-12T04:46:37.980Z,40.03
2018-04-12T04:49:07.335Z,40.07
2018-04-12T04:51:35.894Z,40.73
2018-04-12T04:54:04.488Z,41.40
2018-04-12T04:56:33.095Z,40.20
2018-04-12T04:59:02.470Z,41.40
2018-04-12T05:01:30.833Z,43.20
2018-04-12T05:03:59.685Z,40.63
2018-04-12T05:06:28.201Z,42.07
2018-04-12T05:08:56.621Z,40.50
2018-04-12T05:11:25.993Z,40.00
2018-04-12T05:13:54.591Z,40.80
2018-04-12T05:16:23.192Z,39.13
2018-04-12T05:18:51.803Z,40.57
2018-04-12T05:21:20.413Z,39.57
2018-04-12T05:23:48.766Z,38.20
2018-04-12T05:26:17.372Z,40.87
2018-04-12T05:28:45.982Z,39.67
2018-04-12T05:31:14.557Z,37.57
2018-04-12T05:33:43.144Z,39.70
2018-04-12T05:36:11.771Z,39.97
2018-04-12T05:38:40.429Z,38.23
2018-04-12T05:41:09.789Z,38.73
2018-04-12T05:43:38.372Z,36.77
2018-04-12T05:46:06.978Z,36.67
2018-04-12T05:48:35.537Z,37.17
2018-04-12T05:51:04.132Z,37.70
2018-04-12T05:53:32.717Z,37.13
2018-04-12T05:56:01.302Z,37.00
2018-04-12T05:58:29.701Z,35.27
2018-04-12T06:00:58.369Z,36.20
2018-04-12T06:03:26.993Z,35.40
2018-04-12T06:05:56.358Z,34.10
2018-04-12T06:08:24.965Z,33.33
2018-04-12T06:10:53.597Z,34.23
2018-04-12T06:13:23.100Z,33.07
2018-04-12T06:15:51.694Z,32.50
2018-04-12T06:18:20.310Z,34.83
2018-04-12T06:20:48.885Z,32.47
2018-04-12T06:23:17.289Z,33.10
2018-04-12T06:25:45.870Z,32.13
2018-04-12T06:28:14.459Z,31.83
2018-04-12T06:30:43.965Z,29.80
2018-04-12T06:33:13.302Z,30.03
2018-04-12T06:35:41.892Z,29.67
2018-04-12T06:38:10.482Z,29.83
2018-04-12T06:40:39.077Z,30.37
2018-04-12T06:43:07.702Z,28.50
2018-04-12T06:45:36.880Z,28.50
2018-04-12T06:48:05.221Z,28.67
2018-04-12T06:50:33.789Z,25.47
2018-04-12T06:53:02.406Z,25.13
2018-04-12T06:55:31.009Z,21.77
2018-04-12T06:57:59.597Z,19.47
2018-04-12T07:00:28.210Z,18.17
2018-04-12T07:02:56.791Z,15.77
2018-04-12T07:05:25.423Z,12.97
2018-04-12T07:07:54.063Z,13.13
2018-04-12T07:10:22.639Z,10.00
2018-04-12T07:12:52.013Z,9.83
2018-04-12T07:15:20.573Z,8.83
2018-04-12T07:17:49.159Z,8.17
2018-04-12T07:20:17.782Z,7.07
2018-04-12T07:22:47.145Z,7.33
2018-04-12T07:25:15.721Z,6.23
2018-04-12T07:27:44.486Z,6.30
2018-04-12T07:30:13.094Z,5.70
2018-04-12T07:32:41.705Z,4.90
2018-04-12T07:35:10.282Z,5.43
2018-04-12T07:37:38.666Z,4.60
2018-04-12T07:40:07.255Z,3.43
2018-04-12T07:42:35.859Z,3.70
2018-04-12T07:45:05.248Z,3.80
2018-04-12T07:47:33.827Z,3.57
2018-04-12T07:50:02.408Z,3.87
2018-04-12T07:52:30.961Z,3.17
2018-04-12T07:54:59.557Z,3.43
2018-04-12T07:57:27.947Z,3.17
2018-04-12T07:59:56.514Z,3.53
2018-04-12T08:02:25.096Z,3.40
2018-04-12T08:04:53.688Z,2.87
2018-04-12T08:07:23.122Z,3.53
2018-04-12T08:09:52.481Z,3.43
2018-04-12T08:12:20.836Z,2.90
2018-04-12T08:14:49.209Z,3.90
2018-04-12T08:17:17.788Z,3.70
2018-04-12T08:19:46.181Z,3.00
2018-04-12T08:22:14.782Z,3.07
2018-04-12T08:24:43.378Z,2.60
2018-04-12T08:27:11.990Z,2.90
2018-04-12T08:29:41.373Z,2.80
2018-04-12T08:32:09.944Z,2.87
2018-04-12T08:34:38.600Z,3.00
2018-04-12T08:37:07.319Z,2.90
2018-04-12T08:39:35.905Z,3.40
2018-04-12T08:42:04.504Z,3.20
2018-04-12T08:44:33.848Z,3.03
2018-04-12T08:47:03.193Z,2.67
2018-04-12T08:49:31.639Z,3.50
2018-04-12T08:52:00.984Z,3.73
2018-04-12T08:54:29.595Z,2.60
2018-04-12T08:56:58.375Z,2.93
2018-04-12T08:59:27.725Z,2.87
2018-04-12T09:01:56.281Z,2.83
2018-04-12T09:04:24.889Z,3.47
2018-04-12T09:06:53.519Z,2.93
2018-04-12T09:09:22.837Z,2.53
2018-04-12T09:11:51.437Z,3.23
2018-04-12T09:14:19.980Z,3.00
2018-04-12T09:16:49.338Z,3.10
2018-04-12T09:19:17.892Z,2.70
2018-04-12T09:21:46.482Z,2.17
2018-04-12T09:24:15.081Z,2.90
2018-04-12T09:26:43.666Z,2.60
2018-04-12T09:29:13.835Z,2.40
2018-04-12T09:31:43.292Z,2.70
2018-04-12T09:34:12.825Z,3.00
2018-04-12T09:36:41.492Z,2.80
2018-04-12T09:39:09.819Z,2.87
2018-04-12T09:41:40.163Z,2.40
2018-04-12T09:44:10.456Z,3.10
2018-04-12T09:46:39.092Z,3.03
2018-04-12T09:49:08.663Z,2.50
2018-04-12T09:51:37.113Z,3.63
2018-04-12T09:54:05.400Z,2.30
2018-04-12T09:56:34.000Z,2.60
2018-04-12T09:59:03.468Z,2.40
2018-04-12T10:01:46.691Z,2.60
2018-04-12T10:04:17.173Z,2.63
2018-04-12T10:06:51.136Z,2.40
2018-04-12T10:09:19.545Z,2.80
2018-04-12T10:11:48.961Z,2.10
2018-04-12T10:14:17.534Z,2.23
2018-04-12T10:16:46.997Z,2.57
2018-04-12T10:19:15.591Z,2.63
2018-04-12T10:21:44.309Z,2.60
2018-04-12T10:24:13.597Z,2.50
2018-04-12T10:26:42.169Z,2.67
2018-04-12T10:29:10.783Z,3.90
2018-04-12T10:31:39.137Z,2.73
2018-04-12T10:34:07.864Z,2.50
2018-04-12T10:36:36.441Z,2.40
2018-04-12T10:39:04.217Z,2.17
2018-04-12T10:41:32.815Z,2.27
2018-04-12T10:44:01.339Z,2.50
2018-04-12T10:46:29.953Z,2.37
2018-04-12T10:48:58.529Z,2.00
2018-04-12T10:51:26.950Z,2.10
2018-04-12T10:53:55.589Z,2.30
2018-04-12T10:56:23.969Z,2.50
2018-04-12T10:58:53.086Z,3.30
2018-04-12T11:01:21.696Z,2.37
2018-04-12T11:03:50.299Z,2.37
2018-04-12T11:06:18.908Z,2.10
2018-04-12T11:08:48.277Z,2.23
2018-04-12T11:11:16.871Z,2.60
2018-04-12T11:13:45.412Z,2.13
2018-04-12T11:16:14.006Z,2.03
2018-04-12T11:18:42.589Z,2.50
2018-04-12T11:21:11.179Z,2.30
2018-04-12T11:23:39.812Z,1.97
2018-04-12T11:26:08.443Z,2.13
2018-04-12T11:28:37.102Z,2.17
2018-04-12T11:31:06.569Z,1.80
2018-04-12T11:33:35.161Z,2.23
2018-04-12T11:36:03.770Z,1.97
2018-04-12T11:38:32.336Z,1.80
2018-04-12T11:41:00.933Z,2.03
2018-04-12T11:43:29.482Z,1.80
2018-04-12T11:45:58.049Z,2.00
2018-04-12T11:48:26.684Z,1.93
2018-04-12T11:50:55.237Z,1.80
2018-04-12T11:53:23.828Z,1.90
2018-04-12T11:55:53.253Z,1.90
2018-04-12T11:58:21.839Z,1.70
2018-04-12T12:00:50.425Z,1.50
2018-04-12T12:03:19.005Z,1.83
2018-04-12T12:05:47.597Z,2.00
2018-04-12T12:08:16.165Z,1.90
2018-04-12T12:10:44.751Z,1.73
2018-04-12T12:13:13.319Z,2.00
2018-04-12T12:15:42.632Z,1.80
2018-04-12T12:18:11.271Z,1.70
2018-04-12T12:20:39.882Z,2.07
2018-04-12T12:23:08.462Z,1.50
2018-04-12T12:25:37.070Z,1.60
2018-04-12T12:28:05.638Z,1.60
2018-04-12T12:30:35.005Z,1.80
2018-04-12T12:33:03.602Z,2.03
2018-04-12T12:35:32.177Z,1.73
2018-04-12T12:38:00.774Z,1.53
2018-04-12T12:40:29.326Z,1.40
2018-04-12T12:42:57.980Z,1.70
2018-04-12T12:45:26.590Z,1.47
2018-04-12T12:47:55.185Z,1.40
2018-04-12T12:50:23.766Z,1.50
2018-04-12T12:52:52.321Z,1.50
2018-04-12T12:55:20.890Z,1.70
2018-04-12T12:57:49.460Z,1.50
2018-04-12T13:00:18.582Z,1.50
2018-04-12T13:02:48.037Z,1.67
2018-04-12T13:05:16.624Z,1.57
2018-04-12T13:07:45.197Z,1.50
2018-04-12T13:10:13.796Z,1.53
2018-04-12T13:12:42.363Z,1.80
2018-04-12T13:15:11.007Z,1.80
2018-04-12T13:17:39.556Z,1.60
2018-04-12T13:20:08.996Z,1.53
2018-04-12T13:22:38.346Z,2.10
2018-04-12T13:25:06.961Z,1.67
2018-04-12T13:27:35.337Z,1.57
2018-04-12T13:30:03.604Z,1.67
2018-04-12T13:32:32.170Z,1.60
2018-04-12T13:35:01.777Z,1.40
2018-04-12T13:37:30.393Z,1.80
2018-04-12T13:39:58.818Z,1.43
2018-04-12T13:42:27.419Z,1.60
2018-04-12T13:44:56.048Z,1.70
2018-04-12T13:47:24.641Z,1.47
2018-04-12T13:49:53.195Z,1.40
2018-04-12T13:52:24.438Z,1.50
2018-04-12T13:54:53.813Z,1.50
2018-04-12T13:57:22.631Z,1.60
2018-04-12T13:59:51.246Z,1.83
2018-04-12T14:02:19.812Z,1.60
2018-04-12T14:04:48.441Z,1.40
2018-04-12T14:07:17.169Z,1.70
2018-04-12T14:09:46.750Z,1.80
2018-04-12T14:12:15.383Z,1.70
2018-04-12T14:14:44.103Z,1.73
2018-04-12T14:17:12.769Z,1.60
2018-04-12T14:19:41.492Z,1.80
2018-04-12T14:22:10.049Z,1.73
2018-04-12T14:24:38.682Z,1.80
2018-04-12T14:27:08.027Z,2.00
2018-04-12T14:29:37.547Z,1.60
2018-04-12T14:32:06.246Z,2.03
2018-04-12T14:34:35.662Z,1.73
2018-04-12T14:37:04.276Z,1.93
2018-04-12T14:39:32.844Z,2.17
2018-04-12T14:42:02.036Z,2.00
2018-04-12T14:44:31.400Z,1.73
2018-04-12T14:47:00.178Z,2.30
2018-04-12T14:49:29.181Z,1.97
2018-04-12T14:51:57.753Z,1.50
2018-04-12T14:54:26.333Z,1.63
2018-04-12T14:56:54.961Z,1.70
2018-04-12T14:59:23.562Z,1.77
2018-04-12T15:01:52.186Z,1.90
2018-04-12T15:04:20.780Z,1.90
2018-04-12T15:06:49.185Z,2.10
2018-04-12T15:09:17.763Z,1.90
2018-04-12T15:11:46.375Z,1.90
2018-04-12T15:14:15.757Z,2.50
2018-04-12T15:16:44.599Z,2.50
2018-04-12T15:19:13.239Z,2.70
2018-04-12T15:21:42.561Z,2.97
2018-04-12T15:24:11.929Z,2.70
2018-04-12T15:26:40.587Z,2.83
2018-04-12T15:29:09.173Z,2.63
2018-04-12T15:31:37.837Z,2.97
2018-04-12T15:34:06.404Z,2.50
2018-04-12T15:36:35.475Z,2.67
2018-04-12T15:39:03.664Z,3.00
2018-04-12T15:41:32.287Z,2.60
2018-04-12T15:44:00.961Z,3.00
2018-04-12T15:46:29.551Z,2.90
2018-04-12T15:48:58.193Z,2.60
2018-04-12T15:51:26.829Z,2.43
2018-04-12T15:53:55.394Z,3.87
2018-04-12T15:56:24.002Z,2.70
2018-04-12T15:58:52.401Z,3.43
2018-04-12T16:01:20.809Z,3.80
2018-04-12T16:03:49.555Z,4.03
2018-04-12T16:06:18.233Z,3.80
2018-04-12T16:08:46.821Z,3.30
2018-04-12T16:11:17.470Z,3.27
2018-04-12T16:13:46.096Z,3.00
2018-04-12T16:16:14.634Z,3.47
2018-04-12T16:18:43.224Z,4.10
2018-04-12T16:21:11.638Z,3.33
2018-04-12T16:23:40.269Z,3.30
2018-04-12T16:26:08.689Z,3.60
2018-04-12T16:28:37.289Z,3.60
2018-04-12T16:31:05.938Z,3.60
2018-04-12T16:33:34.540Z,3.27
2018-04-12T16:36:03.913Z,3.33
2018-04-12T16:38:32.509Z,2.97
2018-04-12T16:41:01.106Z,3.20
2018-04-12T16:43:29.749Z,3.10
2018-04-12T16:45:58.366Z,3.43
2018-04-12T16:48:27.033Z,3.63
2018-04-12T16:50:55.467Z,3.83
2018-04-12T16:53:24.087Z,2.80
2018-04-12T16:55:52.574Z,2.87
2018-04-12T16:58:21.241Z,2.93
2018-04-12T17:00:49.900Z,3.00
2018-04-12T17:03:18.519Z,3.17
2018-04-12T17:05:47.116Z,6.10
2018-04-12T17:08:15.726Z,13.37
2018-04-12T17:10:44.297Z,8.27
2018-04-12T17:13:12.894Z,6.43
2018-04-12T17:15:42.237Z,5.23
2018-04-12T17:18:10.815Z,131.83
2018-04-12T17:20:39.392Z,37.00
2018-04-12T17:23:07.976Z,21.20
2018-04-12T17:25:36.591Z,17.53
2018-04-12T17:28:05.205Z,10.40
2018-04-12T17:30:33.729Z,8.83
2018-04-12T17:33:02.338Z,10.13
2018-04-12T17:35:30.930Z,7.40
2018-04-12T17:37:59.369Z,3.80
2018-04-12T17:40:27.985Z,3.80
2018-04-12T17:42:56.551Z,4.27
2018-04-12T17:45:25.347Z,3.43
2018-04-12T17:47:58.633Z,3.60
2018-04-12T17:50:28.020Z,2.70
2018-04-12T17:52:56.581Z,2.97
2018-04-12T17:55:25.989Z,3.20
2018-04-12T17:57:54.593Z,3.20
2018-04-12T18:00:23.171Z,3.30
2018-04-12T18:02:51.737Z,3.40
2018-04-12T18:05:20.297Z,3.23
2018-04-12T18:07:48.910Z,3.30
2018-04-12T18:10:17.302Z,3.00
2018-04-12T18:12:45.921Z,3.00
2018-04-12T18:15:14.560Z,3.00
2018-04-12T18:17:43.898Z,3.03
2018-04-12T18:20:12.515Z,3.07
2018-04-12T18:22:41.154Z,2.80
2018-04-12T18:25:09.738Z,3.30
2018-04-12T18:27:38.357Z,2.73
2018-04-12T18:30:06.936Z,3.47
2018-04-12T18:32:35.555Z,3.30
2018-04-12T18:35:04.374Z,3.40
2018-04-12T18:37:32.955Z,3.00
2018-04-12T18:40:01.596Z,3.30
2018-04-12T18:42:30.163Z,3.93
2018-04-12T18:44:58.790Z,3.40
2018-04-12T18:47:28.185Z,4.30
2018-04-12T18:49:56.830Z,8.50
2018-04-12T18:52:25.601Z,30.47
2018-04-12T18:54:54.029Z,22.47
2018-04-12T18:57:23.459Z,11.97
2018-04-12T18:59:52.056Z,6.37
2018-04-12T19:02:20.668Z,5.63
2018-04-12T19:04:49.307Z,4.10
2018-04-12T19:07:17.908Z,3.50
2018-04-12T19:09:46.515Z,3.73
2018-04-12T19:12:15.129Z,3.87
2018-04-12T19:14:43.742Z,2.90
2018-04-12T19:17:12.386Z,3.10
2018-04-12T19:19:41.804Z,2.57
2018-04-12T19:22:10.501Z,2.40
2018-04-12T19:24:39.873Z,2.70
2018-04-12T19:27:08.491Z,2.00
2018-04-12T19:29:37.881Z,2.00
2018-04-12T19:32:06.544Z,1.67
2018-04-12T19:34:35.171Z,1.47
2018-04-12T19:37:03.749Z,1.90
2018-04-12T19:39:32.374Z,1.63
2018-04-12T19:42:00.971Z,1.63
2018-04-12T19:44:29.461Z,2.17
2018-04-12T19:46:58.095Z,1.70
2018-04-12T19:49:26.754Z,1.80
2018-04-12T19:51:55.550Z,1.87
2018-04-12T19:54:24.318Z,1.83
2018-04-12T19:56:52.922Z,1.90
2018-04-12T19:59:22.277Z,1.83
2018-04-12T20:01:50.870Z,2.13
2018-04-12T20:04:21.917Z,1.80
2018-04-12T20:06:50.537Z,3.00
2018-04-12T20:09:19.861Z,2.37
2018-04-12T20:11:49.128Z,1.97
2018-04-12T20:14:17.694Z,1.70
2018-04-12T20:16:46.304Z,1.80
2018-04-12T20:19:14.925Z,1.60
2018-04-12T20:21:43.502Z,1.77
2018-04-12T20:24:12.089Z,1.30
2018-04-12T20:26:40.804Z,1.33
2018-04-12T20:29:09.487Z,1.70
2018-04-12T20:31:38.093Z,1.50
2018-04-12T20:34:06.721Z,1.60
2018-04-12T20:36:35.289Z,1.40
2018-04-12T20:39:03.433Z,2.33
2018-04-12T20:41:32.058Z,1.60
2018-04-12T20:44:00.680Z,1.40
2018-04-12T20:46:29.266Z,1.60
2018-04-12T20:48:57.874Z,1.40
2018-04-12T20:51:27.220Z,2.03
2018-04-12T20:53:55.837Z,1.80
2018-04-12T20:56:24.442Z,1.73
2018-04-12T20:58:53.026Z,1.67
2018-04-12T21:01:22.389Z,2.50
2018-04-12T21:03:50.953Z,2.70
2018-04-12T21:06:19.540Z,1.73
2018-04-12T21:08:48.173Z,1.70
2018-04-12T21:11:32.516Z,1.70
2018-04-12T21:14:01.126Z,1.80
2018-04-12T21:16:32.937Z,3.30
2018-04-12T21:19:01.518Z,2.53
2018-04-12T21:21:33.093Z,2.10
2018-04-12T21:24:01.677Z,2.20
2018-04-12T21:26:30.261Z,2.57
2018-04-12T21:29:11.051Z,2.10
2018-04-12T21:31:45.282Z,2.10
2018-04-12T21:34:13.868Z,1.97
2018-04-12T21:36:44.260Z,1.80
2018-04-12T21:39:12.850Z,2.00
2018-04-12T21:41:41.430Z,2.30
2018-04-12T21:44:09.992Z,2.57
2018-04-12T21:46:38.608Z,2.80
2018-04-12T21:49:07.176Z,2.67
2018-04-12T21:51:35.738Z,2.07
2018-04-12T21:54:04.341Z,1.87
2018-04-12T21:56:32.933Z,1.60
2018-04-12T21:59:01.507Z,1.73
2018-04-12T22:01:30.113Z,1.90
2018-04-12T22:04:00.710Z,1.90
2018-04-12T22:06:29.417Z,2.10
2018-04-12T22:08:58.014Z,2.17
2018-04-12T22:11:26.629Z,1.53
2018-04-12T22:13:55.215Z,1.70
2018-04-12T22:16:23.628Z,1.63
2018-04-12T22:18:52.237Z,1.57
2018-04-12T22:21:20.869Z,2.00
2018-04-12T22:23:49.544Z,1.67
2018-04-12T22:26:18.195Z,1.70
2018-04-12T22:28:46.885Z,2.00
2018-04-12T22:31:15.551Z,2.10
2018-04-12T22:33:44.150Z,1.70
2018-04-12T22:36:12.819Z,1.87
2018-04-12T22:38:41.377Z,1.60
2018-04-12T22:41:10.013Z,2.30
2018-04-12T22:43:39.410Z,1.83
2018-04-12T22:46:07.963Z,1.40
2018-04-12T22:48:36.565Z,1.93
2018-04-12T22:51:04.541Z,1.70
2018-04-12T22:53:33.133Z,2.07
2018-04-12T22:56:01.719Z,1.77
2018-04-12T22:58:30.297Z,2.23
2018-04-12T23:00:58.878Z,1.70
2018-04-12T23:03:27.442Z,2.23
2018-04-12T23:05:56.057Z,1.80
2018-04-12T23:08:24.672Z,1.73
2018-04-12T23:10:53.267Z,1.83
2018-04-12T23:13:21.888Z,2.10
2018-04-12T23:15:50.479Z,1.90
2018-04-12T23:18:19.071Z,2.10
2018-04-12T23:20:48.440Z,2.30
2018-04-12T23:23:17.021Z,1.83
2018-04-12T23:25:45.606Z,1.63
2018-04-12T23:28:14.181Z,2.00
2018-04-12T23:30:42.769Z,1.77
2018-04-12T23:33:11.367Z,4.03
2018-04-12T23:35:39.937Z,2.07
2018-04-12T23:38:08.519Z,2.20
2018-04-12T23:40:37.849Z,2.10
2018-04-12T23:43:06.453Z,1.80
2018-04-12T23:45:35.805Z,1.97
2018-04-12T23:48:04.365Z,1.80
2018-04-12T23:50:32.953Z,2.00
2018-04-12T23:53:01.533Z,1.77
2018-04-12T23:55:30.124Z,1.93
2018-04-12T23:57:58.516Z,2.10
